Goodyears Bar, California
Current Conditions -  °F | °C
As of 12:52 AM on Friday 31 Oct 2014 (Local Time) from KBLU Reporting Station
Broken Clouds Broken Clouds  
Wind Chill: 53°   Ceiling: 12000
Heat Index: 53°   Visibility: 10mi
Dew Point: 29°   Wind: 10mph
Humidity: 40%   Direction: 170°S
Pressure: 30"   Gusts: NA
Location:  39.54°N, 120.88°W
Report Text: KBLU 310752Z AUTO 17009KT 10SM FEW100 BKN120 12/M02 A3000 RMK AO2 SLP092 T01171017 401830106
Loading
Personal Weather Stations






























Interactive Weather Map
Tropical Storm Tracking
New forecast layout! Learn more

10-Day Weather Forecast

Advertisements
Track Severe Weather on mobile